Time;durP1;ratioP1;P1;durP2;ratioP2;P2;SDS_P1;SDS_P2;PMS_P1;PMS_P2;Temp;Humidity;BMP_temperature;BMP_pressure;BME280_temperature;BME280_humidity;BME280_pressure;Samples;Min_cycle;Max_cycle;Signal;HPM_P1;HPM_P2
2023/03/25 00:00:59;;;;;;;4.30;1.02;;;10.50;99.90;;;;;;4136639;28;20029;-72
2023/03/25 00:03:00;;;;;;;4.72;1.00;;;10.50;99.90;;;;;;4126492;28;20061;-71
2023/03/25 00:05:02;;;;;;;4.28;1.08;;;10.50;99.90;;;;;;4136027;28;20042;-68
2023/03/25 00:07:03;;;;;;;5.65;1.20;;;10.50;99.90;;;;;;4164796;28;20164;-70
2023/03/25 00:09:03;;;;;;;3.63;1.05;;;10.50;99.90;;;;;;4136914;28;20386;-71
2023/03/25 00:11:05;;;;;;;2.28;0.80;;;10.60;99.90;;;;;;4136237;28;20022;-71
2023/03/25 00:13:07;;;;;;;6.37;1.17;;;10.50;99.90;;;;;;4146923;28;20046;-71
2023/03/25 00:15:10;;;;;;;4.75;1.10;;;10.50;99.90;;;;;;4148425;28;20033;-71
2023/03/25 00:17:12;;;;;;;5.25;1.50;;;10.50;99.90;;;;;;4133098;28;20031;-71
2023/03/25 00:19:16;;;;;;;6.05;1.15;;;10.60;99.90;;;;;;4136292;28;20034;-71
2023/03/25 00:21:17;;;;;;;3.05;0.95;;;10.60;99.90;;;;;;4130882;28;20046;-71
2023/03/25 00:23:20;;;;;;;3.45;1.15;;;10.50;99.90;;;;;;4133349;28;20030;-67
2023/03/25 00:25:20;;;;;;;3.45;1.23;;;10.60;99.90;;;;;;4126838;28;22685;-72
2023/03/25 00:27:21;;;;;;;4.13;1.27;;;10.50;99.90;;;;;;4134652;28;20096;-71
2023/03/25 00:29:22;;;;;;;2.78;1.23;;;10.50;99.90;;;;;;4133758;28;20030;-71
2023/03/25 00:31:22;;;;;;;8.55;1.83;;;10.60;99.90;;;;;;4129736;28;20085;-71
2023/03/25 00:33:23;;;;;;;4.63;1.27;;;10.60;99.90;;;;;;4131195;28;20029;-71
2023/03/25 00:35:24;;;;;;;2.28;0.90;;;10.50;99.90;;;;;;4130729;28;20038;-71
2023/03/25 00:37:26;;;;;;;6.13;1.13;;;10.50;99.90;;;;;;4134942;28;20081;-71
2023/03/25 00:39:27;;;;;;;4.07;0.98;;;10.50;99.90;;;;;;4134011;28;20048;-71
2023/03/25 00:41:27;;;;;;;2.10;0.88;;;10.50;99.90;;;;;;4129535;28;20084;-71
2023/03/25 00:43:28;;;;;;;2.10;1.20;;;10.60;99.90;;;;;;4134988;28;20034;-71
2023/03/25 00:45:29;;;;;;;4.38;1.73;;;10.50;99.90;;;;;;4128359;28;20452;-71
2023/03/25 00:47:30;;;;;;;5.18;1.20;;;10.60;99.90;;;;;;4132294;28;20035;-71
2023/03/25 00:49:30;;;;;;;4.55;1.30;;;10.60;99.90;;;;;;4131659;28;20524;-71
2023/03/25 00:51:32;;;;;;;6.22;1.48;;;10.70;99.90;;;;;;4131493;28;20030;-70
2023/03/25 00:53:34;;;;;;;4.43;1.20;;;10.60;99.90;;;;;;4148308;28;20049;-71
2023/03/25 00:55:34;;;;;;;4.90;1.58;;;10.60;99.90;;;;;;4135782;28;20444;-70
2023/03/25 00:57:35;;;;;;;2.15;0.77;;;10.70;99.90;;;;;;4132400;28;20039;-70
2023/03/25 00:59:36;;;;;;;3.33;1.20;;;10.60;99.90;;;;;;4133999;28;20532;-70
2023/03/25 01:01:38;;;;;;;6.65;1.40;;;10.70;99.90;;;;;;4134190;28;20569;-71
2023/03/25 01:03:39;;;;;;;3.28;1.42;;;10.70;99.90;;;;;;4133598;28;20486;-70
2023/03/25 01:05:40;;;;;;;4.57;1.65;;;10.60;99.90;;;;;;4141521;28;20050;-71
2023/03/25 01:07:41;;;;;;;6.80;1.40;;;10.70;99.90;;;;;;4132448;28;20561;-71
2023/03/25 01:09:44;;;;;;;5.05;1.10;;;10.60;99.90;;;;;;4139968;28;20083;-71
2023/03/25 01:11:45;;;;;;;2.15;0.85;;;10.60;99.90;;;;;;4129613;28;20027;-71
2023/03/25 01:13:46;;;;;;;6.07;1.23;;;10.70;99.90;;;;;;4138720;28;20126;-71
2023/03/25 01:15:47;;;;;;;5.07;1.40;;;10.70;99.90;;;;;;4131139;28;20504;-71
2023/03/25 01:17:48;;;;;;;4.68;1.50;;;10.70;99.90;;;;;;4132165;28;20115;-73
2023/03/25 01:19:49;;;;;;;3.85;1.10;;;10.70;99.90;;;;;;4133432;28;20037;-69
2023/03/25 01:21:50;;;;;;;8.57;1.30;;;10.70;99.90;;;;;;4135455;28;20034;-70
2023/03/25 01:23:50;;;;;;;4.45;1.40;;;10.70;99.90;;;;;;4131405;28;20393;-71
2023/03/25 01:25:51;;;;;;;7.00;1.65;;;10.70;99.90;;;;;;4130126;28;20177;-70
2023/03/25 01:27:51;;;;;;;5.57;1.40;;;10.70;99.90;;;;;;4130169;28;20397;-71
2023/03/25 01:29:53;;;;;;;5.90;1.48;;;10.70;99.90;;;;;;4131497;28;20033;-72
2023/03/25 01:31:54;;;;;;;6.45;1.45;;;10.70;99.90;;;;;;4130427;28;20486;-71
2023/03/25 01:33:56;;;;;;;6.75;1.60;;;10.70;99.90;;;;;;4138350;28;20061;-70
2023/03/25 01:35:57;;;;;;;4.13;1.07;;;10.70;99.90;;;;;;4129229;28;20113;-70
2023/03/25 01:37:58;;;;;;;3.47;1.17;;;10.60;99.90;;;;;;4137171;28;20031;-70
2023/03/25 01:39:58;;;;;;;4.65;1.23;;;10.60;99.90;;;;;;4129675;28;20027;-71
2023/03/25 01:41:59;;;;;;;3.30;1.15;;;10.60;99.90;;;;;;4131235;28;20026;-70
2023/03/25 01:44:23;;;;;;;4.88;1.00;;;10.60;99.90;;;;;;4136252;28;20485;-71
2023/03/25 01:46:23;;;;;;;3.20;1.40;;;10.60;99.90;;;;;;4112878;28;20030;-70
2023/03/25 01:48:34;;;;;;;3.58;1.42;;;10.60;99.90;;;;;;4132709;28;20089;-71
2023/03/25 01:50:39;;;;;;;4.80;1.13;;;10.60;99.90;;;;;;4127412;28;20070;-71
2023/03/25 01:52:44;;;;;;;8.93;1.52;;;10.60;99.90;;;;;;4132438;28;20060;-70
2023/03/25 01:54:46;;;;;;;4.60;1.30;;;10.60;99.90;;;;;;4129216;28;20512;-71
2023/03/25 01:56:49;;;;;;;4.72;1.15;;;10.60;99.90;;;;;;4129636;28;20482;-70
2023/03/25 01:58:51;;;;;;;3.53;1.02;;;10.60;99.90;;;;;;4138747;28;20030;-69
2023/03/25 02:00:54;;;;;;;5.28;1.17;;;10.60;99.90;;;;;;4128218;28;20074;-70
2023/03/25 02:02:58;;;;;;;3.67;1.17;;;10.60;99.90;;;;;;4130358;28;20035;-70
2023/03/25 02:05:21;;;;;;;3.75;1.20;;;10.60;99.90;;;;;;4133025;28;20510;-71
2023/03/25 02:07:21;;;;;;;4.18;1.13;;;10.50;99.90;;;;;;4128529;28;20042;-69
2023/03/25 02:09:25;;;;;;;3.17;1.00;;;10.50;99.90;;;;;;4134495;28;20050;-70
2023/03/25 02:11:28;;;;;;;5.35;1.42;;;10.40;99.90;;;;;;4128705;28;20030;-70
2023/03/25 02:13:29;;;;;;;;;;;10.40;99.90;;;;;;4135145;28;20061;-71
2023/03/25 02:15:58;;;;;;;2.97;1.08;;;10.40;99.90;;;;;;4145108;28;19960;-70
2023/03/25 02:18:22;;;;;;;3.65;1.30;;;10.40;99.90;;;;;;4127770;28;20045;-72
2023/03/25 02:20:40;;;;;;;3.92;1.30;;;10.40;99.90;;;;;;4132522;28;20124;-70
2023/03/25 02:22:49;;;;;;;4.70;1.08;;;10.40;99.90;;;;;;4130704;28;20026;-71
2023/03/25 02:24:53;;;;;;;3.15;1.00;;;10.40;99.90;;;;;;4126515;28;20109;-70
2023/03/25 02:27:13;;;;;;;3.13;1.25;;;10.40;99.90;;;;;;4135401;28;20050;-70
2023/03/25 02:29:57;;;;;;;3.15;1.05;;;10.30;99.90;;;;;;4135433;28;20045;-71
2023/03/25 02:32:16;;;;;;;3.85;1.33;;;10.30;99.90;;;;;;4128477;28;20026;-71
2023/03/25 02:34:18;;;;;;;2.70;0.82;;;10.20;99.90;;;;;;4129507;28;20478;-71
2023/03/25 02:36:45;;;;;;;3.95;1.40;;;10.20;99.90;;;;;;4133302;28;20129;-71
2023/03/25 02:38:57;;;;;;;4.35;1.27;;;10.20;99.90;;;;;;4127852;28;20117;-70
2023/03/25 02:41:10;;;;;;;4.00;1.17;;;10.20;99.90;;;;;;4127908;28;20061;-70
2023/03/25 02:43:30;;;;;;;2.03;1.20;;;10.20;99.90;;;;;;4132943;28;20474;-70
2023/03/25 02:45:34;;;;;;;6.13;1.50;;;10.10;99.90;;;;;;4124168;28;20057;-70
2023/03/25 02:47:43;;;;;;;8.77;1.70;;;10.10;99.90;;;;;;4129876;28;20038;-69
2023/03/25 02:49:49;;;;;;;3.92;1.25;;;10.00;99.90;;;;;;4128667;28;20027;-70
2023/03/25 02:52:20;;;;;;;3.33;1.33;;;10.10;99.90;;;;;;4132115;28;20111;-69
2023/03/25 02:54:23;;;;;;;4.63;1.50;;;10.00;99.90;;;;;;4131119;28;20038;-69
2023/03/25 02:56:25;;;;;;;3.42;1.10;;;10.10;99.90;;;;;;4127114;28;20092;-70
2023/03/25 02:58:28;;;;;;;2.67;1.13;;;10.00;99.90;;;;;;4135533;28;20038;-69
2023/03/25 03:00:30;;;;;;;2.55;1.10;;;10.10;99.90;;;;;;4129012;28;20069;-70
2023/03/25 03:02:31;;;;;;;5.07;1.33;;;10.10;99.90;;;;;;4131784;28;20371;-71
2023/03/25 03:04:31;;;;;;;4.18;1.00;;;10.10;99.90;;;;;;4138558;28;20038;-70
2023/03/25 03:06:38;;;;;;;3.22;1.30;;;10.10;99.90;;;;;;4133245;28;20038;-70
2023/03/25 03:08:48;;;;;;;5.00;1.63;;;10.10;99.90;;;;;;4128732;28;20046;-71
2023/03/25 03:11:00;;;;;;;6.22;1.00;;;10.10;99.90;;;;;;4130873;28;20037;-71
2023/03/25 03:13:08;;;;;;;4.15;1.40;;;10.00;99.90;;;;;;4133821;28;20025;-70
2023/03/25 03:15:57;;;;;;;2.95;1.13;;;10.00;99.90;;;;;;4130111;28;20038;-68
2023/03/25 03:18:06;;;;;;;4.32;1.35;;;10.00;99.90;;;;;;4107921;28;20481;-71
2023/03/25 03:20:14;;;;;;;5.50;1.20;;;10.00;99.90;;;;;;4131268;28;20026;-71
2023/03/25 03:22:53;;;;;;;6.25;1.70;;;10.00;99.90;;;;;;4131618;28;20038;-70
2023/03/25 03:25:30;;;;;;;6.03;1.40;;;10.00;99.90;;;;;;4129573;28;20033;-70
2023/03/25 03:27:37;;;;;;;5.13;1.80;;;10.00;99.90;;;;;;4132149;28;20054;-70
2023/03/25 03:29:51;;;;;;;3.83;1.40;;;9.90;99.90;;;;;;4130004;28;20034;-70
2023/03/25 03:32:10;;;;;;;4.63;1.00;;;9.90;99.90;;;;;;4130141;28;20034;-70
2023/03/25 03:34:18;;;;;;;4.53;1.20;;;9.90;99.90;;;;;;4124899;28;20069;-70
2023/03/25 03:36:24;;;;;;;4.03;1.00;;;9.90;99.90;;;;;;4132146;28;20040;-70
2023/03/25 03:38:28;;;;;;;3.65;1.25;;;10.00;99.90;;;;;;4127891;28;20100;-70
2023/03/25 03:40:32;;;;;;;6.90;1.45;;;10.00;99.90;;;;;;4129594;28;20034;-70
2023/03/25 03:42:44;;;;;;;5.43;1.35;;;10.00;99.90;;;;;;4131950;28;20044;-70
2023/03/25 03:44:50;;;;;;;5.20;1.60;;;10.00;99.90;;;;;;4133024;28;20037;-70
2023/03/25 03:47:18;;;;;;;4.47;1.40;;;9.90;99.90;;;;;;4135668;28;20117;-69
2023/03/25 03:49:23;;;;;;;2.55;0.95;;;9.90;99.90;;;;;;4131673;28;20039;-70
2023/03/25 03:51:32;;;;;;;4.70;1.45;;;10.00;99.90;;;;;;4129315;28;20037;-71
2023/03/25 03:53:41;;;;;;;4.38;1.25;;;10.00;99.90;;;;;;4131597;28;20053;-71
2023/03/25 03:56:05;;;;;;;5.05;1.42;;;10.00;99.90;;;;;;4134649;28;20045;-71
2023/03/25 03:58:15;;;;;;;5.18;1.45;;;10.00;99.90;;;;;;4129135;28;20492;-69
2023/03/25 04:00:31;;;;;;;4.05;1.20;;;10.00;99.90;;;;;;4126685;28;20494;-71
2023/03/25 04:02:40;;;;;;;7.93;1.60;;;10.00;99.90;;;;;;4133352;28;20061;-70
2023/03/25 04:04:41;;;;;;;6.53;1.45;;;10.00;99.90;;;;;;4125337;28;21030;-70
2023/03/25 04:06:57;;;;;;;5.28;1.60;;;9.90;99.90;;;;;;4127924;28;20122;-70
2023/03/25 04:09:00;;;;;;;4.63;1.45;;;9.90;99.90;;;;;;4129476;28;20065;-70
2023/03/25 04:11:08;;;;;;;5.65;1.30;;;9.90;99.90;;;;;;4131123;28;20081;-70
2023/03/25 04:13:12;;;;;;;3.92;1.25;;;9.90;99.90;;;;;;4130410;28;20508;-70
2023/03/25 04:15:14;;;;;;;3.65;1.17;;;9.90;99.90;;;;;;4133689;28;20430;-70
2023/03/25 04:17:16;;;;;;;1.85;0.85;;;9.90;99.90;;;;;;4130620;28;20026;-70
2023/03/25 04:19:17;;;;;;;5.38;1.40;;;9.90;99.90;;;;;;4133880;28;20421;-70
2023/03/25 04:21:18;;;;;;;5.03;1.63;;;9.90;99.90;;;;;;4131968;28;20034;-70
2023/03/25 04:23:20;;;;;;;6.30;1.65;;;9.90;99.90;;;;;;4136329;28;20474;-70
2023/03/25 04:25:20;;;;;;;7.05;1.63;;;9.90;99.90;;;;;;4132495;28;20041;-70
2023/03/25 04:27:28;;;;;;;7.57;1.67;;;9.90;99.90;;;;;;4132115;28;20030;-68
2023/03/25 04:29:30;;;;;;;7.13;1.88;;;9.90;99.90;;;;;;4130059;28;20045;-70
2023/03/25 04:31:31;;;;;;;6.93;1.42;;;9.90;99.90;;;;;;4132805;28;20509;-70
2023/03/25 04:33:31;;;;;;;6.03;1.60;;;9.90;99.90;;;;;;4132316;28;20038;-70
2023/03/25 04:35:32;;;;;;;9.60;1.48;;;10.00;99.90;;;;;;4134686;28;20038;-70
2023/03/25 04:37:35;;;;;;;6.22;1.60;;;10.00;99.90;;;;;;4130040;28;20030;-70
2023/03/25 04:39:36;;;;;;;5.43;1.42;;;10.00;99.90;;;;;;4128638;28;20023;-69
2023/03/25 04:41:38;;;;;;;4.30;1.48;;;9.90;99.90;;;;;;4131050;28;20433;-70
2023/03/25 04:43:39;;;;;;;9.63;1.77;;;9.90;99.90;;;;;;4133347;28;20112;-71
2023/03/25 04:45:47;;;;;;;6.43;1.38;;;9.90;99.90;;;;;;4130525;28;20038;-70
2023/03/25 04:47:48;;;;;;;5.93;1.63;;;9.90;99.90;;;;;;4135581;28;20038;-71
2023/03/25 04:49:49;;;;;;;6.43;1.42;;;9.90;99.90;;;;;;4128533;28;20057;-71
2023/03/25 04:51:53;;;;;;;4.88;1.05;;;9.90;99.90;;;;;;4150285;28;20034;-70
2023/03/25 04:53:54;;;;;;;9.10;1.70;;;9.90;99.90;;;;;;4133893;28;20518;-69
2023/03/25 04:55:55;;;;;;;5.45;1.45;;;9.90;99.90;;;;;;4130293;28;20030;-70
2023/03/25 04:57:55;;;;;;;6.13;1.70;;;9.90;99.90;;;;;;4131211;28;20038;-70
2023/03/25 04:59:56;;;;;;;4.88;1.33;;;9.90;99.90;;;;;;4128099;28;20089;-70
2023/03/25 05:01:56;;;;;;;6.70;1.60;;;9.90;99.90;;;;;;4128664;28;20045;-69
2023/03/25 05:04:05;;;;;;;3.00;1.15;;;9.90;99.90;;;;;;4130608;28;20030;-69
2023/03/25 05:06:06;;;;;;;5.88;1.55;;;9.90;99.90;;;;;;4127050;28;20387;-71
2023/03/25 05:08:07;;;;;;;4.20;1.40;;;9.90;99.90;;;;;;4132171;28;20049;-69
2023/03/25 05:10:10;;;;;;;9.73;1.63;;;10.00;99.90;;;;;;4132683;28;20031;-69
2023/03/25 05:12:10;;;;;;;7.90;1.50;;;10.00;99.90;;;;;;4129414;28;20085;-70
2023/03/25 05:14:13;;;;;;;7.68;1.77;;;9.90;99.90;;;;;;4132534;28;20501;-70
2023/03/25 05:16:13;;;;;;;5.55;1.35;;;9.90;99.90;;;;;;4129520;28;20474;-70
2023/03/25 05:18:15;;;;;;;5.35;1.65;;;9.90;99.90;;;;;;4133718;28;20042;-70
2023/03/25 05:20:16;;;;;;;7.20;1.58;;;9.90;99.90;;;;;;4130318;28;20038;-71
2023/03/25 05:22:17;;;;;;;4.45;1.40;;;9.90;99.90;;;;;;4132227;28;20042;-70
2023/03/25 05:24:18;;;;;;;4.47;1.38;;;9.90;99.90;;;;;;4133691;28;20033;-70
2023/03/25 05:26:19;;;;;;;4.07;1.27;;;9.90;99.90;;;;;;4145982;28;20029;-70
2023/03/25 05:28:20;;;;;;;6.95;1.90;;;9.90;99.90;;;;;;4130386;28;20241;-71
2023/03/25 05:30:20;;;;;;;9.55;2.55;;;9.90;99.90;;;;;;4132710;28;20034;-71
2023/03/25 05:32:22;;;;;;;3.38;0.98;;;9.90;99.90;;;;;;4132040;28;20037;-70
2023/03/25 05:34:24;;;;;;;7.43;1.75;;;9.90;99.90;;;;;;4127958;28;20073;-70
2023/03/25 05:36:25;;;;;;;7.63;1.58;;;9.90;99.90;;;;;;4129964;28;20053;-71
2023/03/25 05:38:25;;;;;;;4.03;1.25;;;10.00;99.90;;;;;;4127975;28;20038;-70
2023/03/25 05:40:26;;;;;;;8.20;1.52;;;9.90;99.90;;;;;;4130590;28;20068;-70
2023/03/25 05:42:27;;;;;;;5.90;1.42;;;9.90;99.90;;;;;;4129542;28;20030;-70
2023/03/25 05:44:27;;;;;;;7.20;1.63;;;9.90;99.90;;;;;;4128918;28;20046;-70
2023/03/25 05:46:28;;;;;;;6.03;1.17;;;9.90;99.90;;;;;;4129220;28;20066;-70
2023/03/25 05:48:31;;;;;;;9.35;1.60;;;10.00;99.90;;;;;;4131443;28;20038;-70
2023/03/25 05:50:31;;;;;;;;;;;9.90;99.90;;;;;;4129500;28;20624;-71
2023/03/25 05:52:32;;;;;;;4.82;1.60;;;9.90;99.90;;;;;;4132283;28;19910;-70
2023/03/25 05:54:32;;;;;;;5.13;1.30;;;9.90;99.90;;;;;;4132211;28;20104;-70
2023/03/25 05:56:33;;;;;;;7.68;1.77;;;10.00;99.90;;;;;;4130066;28;20035;-70
2023/03/25 05:58:35;;;;;;;6.35;1.20;;;9.90;99.90;;;;;;4130856;28;20034;-70
2023/03/25 06:00:36;;;;;;;4.55;1.42;;;10.00;99.90;;;;;;4130179;28;20409;-70
2023/03/25 06:02:37;;;;;;;8.18;1.90;;;10.00;99.90;;;;;;4144617;28;20046;-69
2023/03/25 06:04:40;;;;;;;3.05;1.10;;;10.00;99.90;;;;;;4127621;28;20511;-70
2023/03/25 06:06:40;;;;;;;4.53;1.50;;;10.00;99.90;;;;;;4128334;28;20402;-70
2023/03/25 06:08:41;;;;;;;5.32;1.40;;;10.00;99.90;;;;;;4131247;28;20118;-71
2023/03/25 06:10:44;;;;;;;5.63;1.60;;;10.00;99.90;;;;;;4130919;28;20049;-70
2023/03/25 06:12:46;;;;;;;8.20;1.77;;;10.10;99.90;;;;;;4130439;28;20473;-71
2023/03/25 06:14:47;;;;;;;4.95;1.58;;;10.00;99.90;;;;;;4129196;28;20125;-71
2023/03/25 06:16:48;;;;;;;8.52;1.83;;;10.00;99.90;;;;;;4128258;28;20549;-70
2023/03/25 06:18:54;;;;;;;4.80;1.67;;;10.00;99.90;;;;;;4130161;28;20114;-70
2023/03/25 06:20:56;;;;;;;4.55;1.42;;;10.00;99.90;;;;;;4143533;28;20061;-69
2023/03/25 06:22:57;;;;;;;4.93;1.33;;;10.00;99.90;;;;;;4129553;28;20085;-70
2023/03/25 06:24:57;;;;;;;5.70;1.65;;;10.00;99.90;;;;;;4129922;28;20026;-70
2023/03/25 06:26:58;;;;;;;5.10;1.42;;;10.10;99.90;;;;;;4129498;28;20034;-70
2023/03/25 06:28:59;;;;;;;8.40;1.52;;;10.00;99.90;;;;;;4130083;28;20090;-70
2023/03/25 06:31:05;;;;;;;9.82;1.70;;;10.00;99.90;;;;;;4127413;28;20022;-70
2023/03/25 06:33:06;;;;;;;6.95;1.65;;;10.00;99.90;;;;;;4129440;28;20511;-66
2023/03/25 06:35:09;;;;;;;9.07;1.95;;;10.00;99.90;;;;;;4126826;28;20043;-70
2023/03/25 06:37:10;;;;;;;5.70;1.55;;;10.00;99.90;;;;;;4131586;28;20061;-70
2023/03/25 06:39:10;;;;;;;8.77;1.63;;;10.10;99.90;;;;;;4129678;28;20030;-70
2023/03/25 06:41:12;;;;;;;5.25;1.88;;;10.10;99.90;;;;;;4126122;28;20108;-70
2023/03/25 06:43:13;;;;;;;7.47;1.83;;;10.10;99.90;;;;;;4127949;28;20042;-70
2023/03/25 06:45:14;;;;;;;3.88;1.50;;;10.10;99.90;;;;;;4124992;28;20250;-70
2023/03/25 06:47:15;;;;;;;6.85;1.70;;;10.10;99.90;;;;;;4128937;28;20537;-70
2023/03/25 06:49:16;;;;;;;6.65;1.88;;;10.00;99.90;;;;;;4132148;28;20034;-70
2023/03/25 06:51:16;;;;;;;5.75;2.13;;;10.00;99.90;;;;;;4127338;28;20481;-72
2023/03/25 06:53:17;;;;;;;10.15;2.08;;;10.00;99.90;;;;;;4127857;28;20042;-70
2023/03/25 06:55:17;;;;;;;10.13;2.10;;;10.00;99.90;;;;;;4128258;28;20030;-70
2023/03/25 06:57:18;;;;;;;5.53;1.77;;;10.00;99.90;;;;;;4130088;28;20027;-70
2023/03/25 06:59:18;;;;;;;10.75;2.15;;;10.00;99.90;;;;;;4127587;28;20038;-70
2023/03/25 07:01:19;;;;;;;5.47;1.60;;;10.10;99.90;;;;;;4126801;28;20030;-70
2023/03/25 07:03:20;;;;;;;9.88;1.95;;;10.10;99.90;;;;;;4128208;28;20035;-70
2023/03/25 07:05:21;;;;;;;6.68;1.90;;;10.10;99.90;;;;;;4126882;28;20070;-71
2023/03/25 07:07:21;;;;;;;8.65;2.00;;;10.10;99.90;;;;;;4129861;28;20481;-71
2023/03/25 07:09:22;;;;;;;10.15;2.00;;;10.10;99.90;;;;;;4129865;28;20034;-72
2023/03/25 07:11:27;;;;;;;8.52;2.10;;;10.10;99.90;;;;;;4130453;28;20092;-71
2023/03/25 07:13:27;;;;;;;9.38;2.00;;;10.10;99.90;;;;;;4129755;28;20080;-72
2023/03/25 07:15:28;;;;;;;10.10;2.13;;;10.10;99.90;;;;;;4126296;28;20038;-72
2023/03/25 07:17:29;;;;;;;9.73;2.33;;;10.10;99.90;;;;;;4127981;28;20022;-72
2023/03/25 07:19:29;;;;;;;8.50;2.00;;;10.10;99.90;;;;;;4132239;28;20109;-71
2023/03/25 07:21:30;;;;;;;5.38;1.73;;;10.10;99.90;;;;;;4131223;28;20474;-73
2023/03/25 07:23:31;;;;;;;8.15;2.35;;;10.20;99.90;;;;;;4131515;28;20023;-73
2023/03/25 07:25:31;;;;;;;10.40;2.33;;;10.10;99.90;;;;;;4125943;28;20077;-73
2023/03/25 07:27:32;;;;;;;7.95;1.83;;;10.10;99.90;;;;;;4130224;28;20485;-73
2023/03/25 07:29:32;;;;;;;6.70;1.98;;;10.10;99.90;;;;;;4131622;28;20512;-73
2023/03/25 07:31:33;;;;;;;6.85;1.63;;;10.10;99.90;;;;;;4128163;28;20042;-73
2023/03/25 07:33:34;;;;;;;7.25;2.35;;;10.10;99.90;;;;;;4129279;28;20056;-71
2023/03/25 07:35:34;;;;;;;7.97;1.77;;;10.20;99.90;;;;;;4126202;28;20451;-71
2023/03/25 07:37:35;;;;;;;7.55;2.33;;;10.20;99.90;;;;;;4129190;28;20027;-71
2023/03/25 07:39:36;;;;;;;6.47;1.90;;;10.20;99.90;;;;;;4146089;28;20026;-71
2023/03/25 07:41:36;;;;;;;9.13;2.10;;;10.20;99.90;;;;;;4128384;28;20110;-70
2023/03/25 07:43:38;;;;;;;7.72;1.75;;;10.20;99.90;;;;;;4128222;28;20116;-70
2023/03/25 07:45:38;;;;;;;11.70;2.22;;;10.20;99.90;;;;;;4128807;28;20034;-71
2023/03/25 07:47:39;;;;;;;10.95;2.28;;;10.20;99.90;;;;;;4131555;28;20026;-71
2023/03/25 07:49:39;;;;;;;9.30;2.25;;;10.30;99.90;;;;;;4135895;28;20129;-71
2023/03/25 07:51:40;;;;;;;10.13;2.38;;;10.30;99.90;;;;;;4130310;28;20034;-71
2023/03/25 07:53:43;;;;;;;9.05;2.00;;;10.30;99.90;;;;;;4135309;28;20397;-71
2023/03/25 07:55:44;;;;;;;15.25;2.33;;;10.40;99.90;;;;;;4131478;28;20429;-71
2023/03/25 07:57:45;;;;;;;13.45;2.45;;;10.40;99.90;;;;;;4133938;28;20057;-71
2023/03/25 07:59:45;;;;;;;6.68;2.05;;;10.40;99.90;;;;;;4135478;28;20489;-71
2023/03/25 08:01:46;;;;;;;9.30;1.80;;;10.40;99.90;;;;;;4130093;28;20122;-71
2023/03/25 08:03:47;;;;;;;12.00;2.00;;;10.50;99.90;;;;;;4133062;28;20482;-72
2023/03/25 08:05:48;;;;;;;7.47;1.92;;;10.50;99.90;;;;;;4133068;28;20492;-72
2023/03/25 08:07:50;;;;;;;6.40;1.88;;;10.60;99.90;;;;;;4133446;28;20030;-71
2023/03/25 08:09:50;;;;;;;7.40;1.90;;;10.70;99.90;;;;;;4130062;28;20431;-71
2023/03/25 08:11:51;;;;;;;6.45;1.92;;;10.70;99.90;;;;;;4133160;28;20027;-71
2023/03/25 08:13:51;;;;;;;9.80;1.95;;;10.80;99.90;;;;;;4132445;28;20030;-72
2023/03/25 08:15:52;;;;;;;9.23;1.98;;;10.80;99.90;;;;;;4134360;28;20034;-72
2023/03/25 08:17:53;;;;;;;6.35;1.60;;;10.80;99.90;;;;;;4131825;28;20074;-71
2023/03/25 08:19:53;;;;;;;8.95;2.15;;;10.90;99.90;;;;;;4131447;28;20026;-72
2023/03/25 08:21:54;;;;;;;11.23;2.33;;;10.90;99.90;;;;;;4132596;28;20486;-73
2023/03/25 08:24:03;;;;;;;12.18;2.40;;;10.90;99.90;;;;;;4130932;28;20173;-72
2023/03/25 08:26:04;;;;;;;10.15;1.85;;;11.00;99.90;;;;;;4130629;28;20050;-71
2023/03/25 08:28:05;;;;;;;8.38;2.38;;;10.90;99.90;;;;;;4130301;28;20042;-72
2023/03/25 08:30:09;;;;;;;11.48;2.92;;;11.00;99.90;;;;;;4133239;28;20523;-71
2023/03/25 08:32:10;;;;;;;9.32;1.98;;;11.00;99.90;;;;;;4130204;28;20107;-72
2023/03/25 08:34:12;;;;;;;12.18;2.60;;;11.00;99.90;;;;;;4131755;28;20405;-72
2023/03/25 08:36:18;;;;;;;13.65;2.55;;;10.90;99.90;;;;;;4130378;28;20069;-71
2023/03/25 08:38:20;;;;;;;7.32;1.95;;;10.90;99.90;;;;;;4130087;28;20095;-72
2023/03/25 08:40:20;;;;;;;6.82;1.60;;;10.90;99.90;;;;;;4136369;28;20076;-72
2023/03/25 08:42:21;;;;;;;7.32;2.28;;;10.90;99.90;;;;;;4132489;28;20034;-71
2023/03/25 08:44:22;;;;;;;13.35;2.75;;;10.90;99.90;;;;;;4130019;28;20041;-71
2023/03/25 08:46:22;;;;;;;10.10;2.45;;;10.80;99.90;;;;;;4126565;28;20103;-71
2023/03/25 08:48:23;;;;;;;6.07;1.63;;;10.90;99.90;;;;;;4131371;28;20037;-71
2023/03/25 08:50:24;;;;;;;8.68;2.03;;;10.90;99.90;;;;;;4130642;28;20042;-72
2023/03/25 08:52:24;;;;;;;8.60;2.20;;;10.90;99.90;;;;;;4130375;28;20022;-72
2023/03/25 08:54:26;;;;;;;10.25;2.55;;;11.00;99.90;;;;;;4131964;28;20042;-72
2023/03/25 08:56:27;;;;;;;9.90;2.63;;;10.90;99.90;;;;;;4128466;28;20050;-70
2023/03/25 08:58:27;;;;;;;16.60;2.67;;;11.00;99.90;;;;;;4128666;28;20069;-70
2023/03/25 09:00:28;;;;;;;8.10;2.28;;;11.00;99.90;;;;;;4131233;28;20104;-70
2023/03/25 09:02:29;;;;;;;11.35;2.60;;;11.00;99.90;;;;;;4129927;28;20034;-69
2023/03/25 09:04:30;;;;;;;13.27;2.65;;;11.00;99.90;;;;;;4128855;28;20070;-71
2023/03/25 09:06:31;;;;;;;12.55;2.55;;;11.00;99.90;;;;;;4130785;28;20061;-71
2023/03/25 09:08:32;;;;;;;13.77;2.97;;;11.00;99.90;;;;;;4129074;28;20062;-72
2023/03/25 09:10:32;;;;;;;10.13;2.17;;;10.90;99.90;;;;;;4129425;28;20085;-71
2023/03/25 09:12:33;;;;;;;11.38;2.30;;;10.90;99.90;;;;;;4126611;28;20071;-71
2023/03/25 09:14:33;;;;;;;11.02;2.45;;;10.90;99.90;;;;;;4128785;28;20038;-69
2023/03/25 09:16:34;;;;;;;10.35;2.90;;;10.90;99.90;;;;;;4128649;28;20026;-72
2023/03/25 09:18:35;;;;;;;11.38;2.45;;;10.90;99.90;;;;;;4132353;28;20039;-72
2023/03/25 09:20:36;;;;;;;10.18;2.50;;;10.90;99.90;;;;;;4129066;28;20061;-71
2023/03/25 09:22:38;;;;;;;10.52;2.38;;;11.00;99.90;;;;;;4128353;28;20034;-69
2023/03/25 09:24:39;;;;;;;10.73;2.40;;;11.00;99.90;;;;;;4127852;28;20093;-72
2023/03/25 09:26:40;;;;;;;11.25;2.40;;;11.00;99.90;;;;;;4127791;28;20049;-72
2023/03/25 09:28:40;;;;;;;11.32;2.55;;;11.10;99.90;;;;;;4129290;28;20053;-71
2023/03/25 09:30:41;;;;;;;8.45;2.22;;;11.10;99.90;;;;;;4125902;28;20091;-73
2023/03/25 09:32:43;;;;;;;6.85;2.13;;;11.10;99.90;;;;;;4127851;28;20477;-72
2023/03/25 09:34:44;;;;;;;17.02;2.85;;;11.10;99.90;;;;;;4157239;28;20044;-71
2023/03/25 09:36:45;;;;;;;8.93;2.33;;;11.10;99.90;;;;;;4127572;28;20038;-72
2023/03/25 09:38:45;;;;;;;7.53;2.30;;;11.20;99.90;;;;;;4129616;28;20437;-71
2023/03/25 09:40:46;;;;;;;9.18;2.65;;;11.20;99.90;;;;;;4129879;28;20093;-70
2023/03/25 09:42:49;;;;;;;8.45;2.83;;;11.20;99.90;;;;;;4129752;28;20468;-71
2023/03/25 09:45:13;;;;;;;9.05;2.13;;;11.20;99.90;;;;;;4124974;28;20386;-70
2023/03/25 09:47:15;;;;;;;7.68;1.80;;;11.20;99.90;;;;;;4127012;28;20034;-72
2023/03/25 09:49:23;;;;;;;10.35;2.75;;;11.30;99.90;;;;;;4128155;28;20474;-71
2023/03/25 09:51:29;;;;;;;9.05;2.40;;;11.20;99.90;;;;;;4127310;28;20609;-72
2023/03/25 09:53:42;;;;;;;10.18;2.30;;;11.20;99.90;;;;;;4129670;28;20096;-71
2023/03/25 09:55:43;;;;;;;;;;;11.20;99.90;;;;;;4127826;28;20117;-71
2023/03/25 09:57:47;;;;;;;15.43;2.83;;;11.10;99.90;;;;;;4129227;28;19914;-72
2023/03/25 09:59:51;;;;;;;9.52;2.35;;;11.10;99.90;;;;;;4143481;28;20033;-72
2023/03/25 10:02:03;;;;;;;11.98;2.78;;;11.10;99.90;;;;;;4128203;28;20026;-72
2023/03/25 10:04:28;;;;;;;10.77;2.80;;;11.00;99.90;;;;;;4128389;28;20034;-71
2023/03/25 10:06:34;;;;;;;17.00;3.22;;;11.00;99.90;;;;;;4125857;28;20030;-71
2023/03/25 10:09:12;;;;;;;11.32;2.30;;;11.00;99.90;;;;;;4127553;28;20121;-71
2023/03/25 10:11:30;;;;;;;14.30;2.72;;;11.00;99.90;;;;;;4126736;28;20026;-73
2023/03/25 10:13:49;;;;;;;10.43;2.22;;;11.00;99.90;;;;;;4128727;28;20105;-71
2023/03/25 10:15:56;;;;;;;13.07;2.38;;;11.00;99.90;;;;;;4124762;28;20465;-71
2023/03/25 10:18:19;;;;;;;6.80;2.25;;;11.00;99.90;;;;;;4125408;28;20030;-74
2023/03/25 10:20:35;;;;;;;11.47;2.43;;;11.00;99.90;;;;;;4127526;28;20041;-73
2023/03/25 10:23:10;;;;;;;13.13;2.60;;;11.00;99.90;;;;;;4128661;28;20392;-72
2023/03/25 10:25:16;;;;;;;8.82;2.03;;;11.10;99.90;;;;;;4125721;28;20027;-74
2023/03/25 10:27:37;;;;;;;9.30;2.05;;;11.00;99.90;;;;;;4130195;28;20034;-73
2023/03/25 10:30:09;;;;;;;10.02;1.95;;;11.10;99.90;;;;;;4131238;28;20034;-72
2023/03/25 10:32:16;;;;;;;12.27;2.20;;;11.20;99.90;;;;;;4128935;28;20388;-72
2023/03/25 10:34:19;;;;;;;9.70;2.10;;;11.20;99.90;;;;;;4129592;28;20176;-72
2023/03/25 10:36:31;;;;;;;7.45;1.90;;;11.30;99.90;;;;;;4127222;28;20035;-74
2023/03/25 10:38:36;;;;;;;11.40;2.40;;;11.30;99.90;;;;;;4128804;28;20030;-76
2023/03/25 10:40:43;;;;;;;10.05;1.77;;;11.30;99.90;;;;;;4127346;28;20073;-77
2023/03/25 10:43:22;;;;;;;9.95;2.20;;;11.20;99.90;;;;;;4141039;28;20121;-75
2023/03/25 10:45:23;;;;;;;6.57;1.70;;;11.20;99.90;;;;;;4104251;28;20037;-74
2023/03/25 10:47:32;;;;;;;9.43;2.10;;;11.10;99.90;;;;;;4126631;28;20077;-76
2023/03/25 10:49:35;;;;;;;10.20;2.03;;;11.10;99.90;;;;;;4126215;28;20041;-75